Time;durP1;ratioP1;P1;durP2;ratioP2;P2;SDS_P1;SDS_P2;PMS_P1;PMS_P2;Temp;Humidity;BMP_temperature;BMP_pressure;BME280_temperature;BME280_humidity;BME280_pressure;Samples;Min_cycle;Max_cycle;Signal;HPM_P1;HPM_P2
2023/10/24 00:02:12;;;;;;;;;;;;;;;9.41;56.15;94528.47;4962139;28;20662;-66
2023/10/24 00:04:38;;;;;;;;;;;;;;;9.46;55.63;94527.88;4961435;28;20342;-67
2023/10/24 00:07:03;;;;;;;;;;;;;;;9.68;55.38;94523.25;4960859;28;19922;-67
2023/10/24 00:09:28;;;;;;;;;;;;;;;10.14;54.11;94526.28;4962767;28;20306;-67
2023/10/24 00:11:54;;;;;;;;;;;;;;;10.30;53.61;94524.25;4962518;28;20746;-66
2023/10/24 00:14:19;;;;;;;;;;;;;;;10.21;53.78;94521.75;4963794;28;19954;-67
2023/10/24 00:16:44;;;;;;;;;;;;;;;10.08;54.05;94506.63;4961030;28;19928;-66
2023/10/24 00:19:09;;;;;;;;;;;;;;;10.52;53.17;94510.72;4963450;28;20418;-67
2023/10/24 00:21:35;;;;;;;;;;;;;;;10.41;53.38;94510.34;4963786;28;19952;-67
2023/10/24 00:24:00;;;;;;;;;;;;;;;10.30;53.98;94517.06;4961066;28;19924;-66
2023/10/24 00:26:25;;;;;;;;;;;;;;;10.18;54.16;94508.06;4964555;28;20287;-67
2023/10/24 00:28:50;;;;;;;;;;;;;;;10.42;53.56;94505.81;4963983;28;20215;-66
2023/10/24 00:31:16;;;;;;;;;;;;;;;9.44;56.42;94511.28;4971555;28;19953;-67
2023/10/24 00:33:41;;;;;;;;;;;;;;;8.95;58.49;94513.91;4965742;28;19937;-67
2023/10/24 00:36:06;;;;;;;;;;;;;;;9.20;57.80;94516.09;4962727;28;19922;-67
2023/10/24 00:38:33;;;;;;;;;;;;;;;9.67;56.26;94523.44;4964776;28;20054;-67
2023/10/24 00:40:58;;;;;;;;;;;;;;;9.12;57.45;94521.56;4963157;28;19918;-67
2023/10/24 00:43:24;;;;;;;;;;;;;;;9.85;55.66;94521.06;4962099;28;20343;-66
2023/10/24 00:45:49;;;;;;;;;;;;;;;9.88;55.68;94527.81;4969629;28;20016;-66
2023/10/24 00:48:14;;;;;;;;;;;;;;;8.73;58.88;94527.22;4965764;28;19957;-67
2023/10/24 00:50:39;;;;;;;;;;;;;;;7.70;62.48;94529.09;4962324;28;19914;-66
2023/10/24 00:53:05;;;;;;;;;;;;;;;9.27;58.32;94516.13;4964682;28;19925;-66
2023/10/24 00:55:30;;;;;;;;;;;;;;;9.32;57.38;94503.88;4962906;28;19965;-66
2023/10/24 00:57:55;;;;;;;;;;;;;;;7.66;62.97;94515.38;4966613;28;20024;-67
2023/10/24 01:00:21;;;;;;;;;;;;;;;9.12;58.88;94510.94;4965522;28;19921;-67
2023/10/24 01:02:46;;;;;;;;;;;;;;;9.72;56.72;94502.41;4967167;28;19974;-68
2023/10/24 01:05:11;;;;;;;;;;;;;;;9.34;57.87;94495.72;4967015;28;19944;-67
2023/10/24 01:07:37;;;;;;;;;;;;;;;9.75;56.43;94491.38;4944086;28;19928;-68
2023/10/24 01:10:02;;;;;;;;;;;;;;;10.02;55.60;94498.56;4969611;28;20380;-68
2023/10/24 01:12:27;;;;;;;;;;;;;;;10.10;55.31;94495.78;4967600;28;20287;-67
2023/10/24 01:14:52;;;;;;;;;;;;;;;10.33;54.58;94492.72;4973304;28;19921;-67
2023/10/24 01:17:18;;;;;;;;;;;;;;;9.84;55.59;94489.34;4967730;28;20049;-67
2023/10/24 01:19:43;;;;;;;;;;;;;;;9.70;56.56;94483.19;4961984;28;19956;-67
2023/10/24 01:22:08;;;;;;;;;;;;;;;9.64;56.50;94482.16;4967757;28;20142;-67
2023/10/24 01:24:34;;;;;;;;;;;;;;;9.73;56.05;94485.47;4964589;28;19965;-67
2023/10/24 01:26:59;;;;;;;;;;;;;;;9.67;56.36;94483.59;4949935;28;19910;-67
2023/10/24 01:29:24;;;;;;;;;;;;;;;9.97;55.36;94478.72;4965244;28;19976;-68
2023/10/24 01:31:49;;;;;;;;;;;;;;;9.21;57.32;94488.50;4963554;28;19926;-68
2023/10/24 01:34:15;;;;;;;;;;;;;;;9.82;56.18;94492.22;4965398;28;20028;-67
2023/10/24 01:36:40;;;;;;;;;;;;;;;9.46;57.44;94485.38;4960061;28;19925;-67
2023/10/24 01:39:07;;;;;;;;;;;;;;;9.88;56.12;94476.47;4964136;28;19960;-67
2023/10/24 01:41:32;;;;;;;;;;;;;;;9.80;56.25;94472.19;4964234;28;19968;-67
2023/10/24 01:43:58;;;;;;;;;;;;;;;10.13;55.39;94466.09;4963518;28;19954;-68
2023/10/24 01:46:23;;;;;;;;;;;;;;;9.92;55.73;94465.25;4970190;28;19918;-68
2023/10/24 01:48:48;;;;;;;;;;;;;;;10.05;55.31;94471.59;4963548;28;19960;-68
2023/10/24 01:51:13;;;;;;;;;;;;;;;10.12;54.63;94451.19;4964270;28;19922;-67
2023/10/24 01:53:38;;;;;;;;;;;;;;;9.87;56.00;94453.56;4963370;28;19918;-68
2023/10/24 01:56:04;;;;;;;;;;;;;;;10.15;54.98;94453.44;4959279;28;19922;-67
2023/10/24 01:58:29;;;;;;;;;;;;;;;10.17;54.74;94450.56;4964123;28;20405;-68
2023/10/24 02:00:54;;;;;;;;;;;;;;;9.41;56.91;94454.06;4963356;28;19956;-67
2023/10/24 02:03:19;;;;;;;;;;;;;;;9.70;56.32;94453.97;4963437;28;20009;-67
2023/10/24 02:05:45;;;;;;;;;;;;;;;9.50;56.92;94452.06;4963119;28;20018;-68
2023/10/24 02:08:10;;;;;;;;;;;;;;;9.52;56.60;94451.88;4963228;28;20447;-67
2023/10/24 02:10:35;;;;;;;;;;;;;;;9.72;56.21;94446.59;4965980;28;20463;-66
2023/10/24 02:13:00;;;;;;;;;;;;;;;8.93;58.57;94454.84;4962878;28;19952;-67
2023/10/24 02:15:26;;;;;;;;;;;;;;;8.05;60.84;94441.81;4962995;28;19925;-67
2023/10/24 02:17:51;;;;;;;;;;;;;;;8.64;59.68;94443.47;4963338;28;20004;-66
2023/10/24 02:20:16;;;;;;;;;;;;;;;8.79;59.11;94446.00;4964652;28;20008;-66
2023/10/24 02:22:41;;;;;;;;;;;;;;;9.20;58.11;94442.56;4959923;28;19914;-66
2023/10/24 02:25:08;;;;;;;;;;;;;;;8.00;61.48;94443.41;4967295;28;20056;-67
2023/10/24 02:27:34;;;;;;;;;;;;;;;8.45;61.48;94440.50;4967926;28;19922;-67
2023/10/24 02:30:00;;;;;;;;;;;;;;;8.14;61.89;94442.50;4966198;28;19914;-67
2023/10/24 02:32:25;;;;;;;;;;;;;;;8.77;60.38;94437.44;4967189;28;20388;-67
2023/10/24 02:34:50;;;;;;;;;;;;;;;8.29;62.06;94431.81;4966192;28;19921;-66
2023/10/24 02:37:16;;;;;;;;;;;;;;;9.42;57.92;94418.50;4967491;28;19922;-66
2023/10/24 02:39:41;;;;;;;;;;;;;;;8.97;58.66;94426.13;4967292;28;19952;-67
2023/10/24 02:42:06;;;;;;;;;;;;;;;8.66;60.46;94434.31;4969009;28;19999;-66
2023/10/24 02:44:32;;;;;;;;;;;;;;;9.41;57.75;94448.75;4969659;28;19918;-67
2023/10/24 02:46:57;;;;;;;;;;;;;;;9.10;59.00;94451.91;4970150;28;19957;-67
2023/10/24 02:49:22;;;;;;;;;;;;;;;9.46;57.72;94450.84;4967845;28;19925;-66
2023/10/24 02:51:48;;;;;;;;;;;;;;;8.84;59.46;94464.81;4962858;28;19914;-66
2023/10/24 02:54:13;;;;;;;;;;;;;;;7.32;64.44;94477.13;4963690;28;19914;-66
2023/10/24 02:56:38;;;;;;;;;;;;;;;7.02;64.71;94483.28;4963160;28;19962;-65
2023/10/24 02:59:04;;;;;;;;;;;;;;;7.25;63.67;94455.06;4963556;28;20013;-66
2023/10/24 03:01:29;;;;;;;;;;;;;;;8.29;60.90;94445.06;4962717;28;20256;-66
2023/10/24 03:03:54;;;;;;;;;;;;;;;8.09;62.24;94425.53;4963743;28;19953;-66
2023/10/24 03:06:20;;;;;;;;;;;;;;;7.51;63.02;94459.81;4964219;28;20401;-67
2023/10/24 03:08:45;;;;;;;;;;;;;;;8.20;61.13;94454.19;4965675;28;19972;-66
2023/10/24 03:11:10;;;;;;;;;;;;;;;8.09;61.01;94446.75;4965505;28;20020;-67
2023/10/24 03:13:36;;;;;;;;;;;;;;;7.42;62.70;94458.31;4965770;28;19953;-67
2023/10/24 03:16:04;;;;;;;;;;;;;;;8.10;61.06;94458.97;4965477;28;20445;-66
2023/10/24 03:18:34;;;;;;;;;;;;;;;8.36;60.17;94445.09;4966259;28;20018;-66
2023/10/24 03:20:59;;;;;;;;;;;;;;;8.59;59.25;94432.59;4963325;28;19958;-66
2023/10/24 03:23:24;;;;;;;;;;;;;;;8.56;59.23;94431.16;4963744;28;19947;-66
2023/10/24 03:25:50;;;;;;;;;;;;;;;8.46;59.14;94438.66;4962153;28;19922;-66
2023/10/24 03:28:15;;;;;;;;;;;;;;;8.71;58.54;94430.25;4968190;28;19964;-66
2023/10/24 03:30:40;;;;;;;;;;;;;;;7.78;61.61;94438.94;4964092;28;20428;-67
2023/10/24 03:33:06;;;;;;;;;;;;;;;8.28;59.74;94443.44;4969735;28;19985;-66
2023/10/24 03:35:34;;;;;;;;;;;;;;;7.43;62.89;94451.16;4961382;28;20645;-67
2023/10/24 03:37:59;;;;;;;;;;;;;;;8.31;59.99;94436.94;4970189;28;20047;-66
2023/10/24 03:40:26;;;;;;;;;;;;;;;8.28;59.61;94440.78;4965784;28;20008;-66
2023/10/24 03:42:52;;;;;;;;;;;;;;;7.73;61.19;94459.03;4972567;28;19962;-66
2023/10/24 03:45:17;;;;;;;;;;;;;;;8.09;60.26;94465.31;4964585;28;19914;-66
2023/10/24 03:47:42;;;;;;;;;;;;;;;7.71;61.79;94474.28;4973478;28;20345;-67
2023/10/24 03:50:08;;;;;;;;;;;;;;;6.91;62.77;94477.63;4967940;28;19925;-67
2023/10/24 03:52:33;;;;;;;;;;;;;;;7.92;61.21;94465.53;4961395;28;19966;-66
2023/10/24 03:54:59;;;;;;;;;;;;;;;8.27;59.19;94452.38;4961721;28;20357;-67
2023/10/24 03:57:24;;;;;;;;;;;;;;;7.56;61.81;94458.44;4962026;28;20020;-66
2023/10/24 03:59:49;;;;;;;;;;;;;;;7.26;62.32;94468.09;4962688;28;19922;-66
2023/10/24 04:02:15;;;;;;;;;;;;;;;7.07;63.19;94461.53;4965948;28;19917;-66
2023/10/24 04:04:40;;;;;;;;;;;;;;;6.42;65.80;94459.41;4962242;28;19952;-66
2023/10/24 04:07:05;;;;;;;;;;;;;;;7.24;63.59;94450.78;4965748;28;19952;-67
2023/10/24 04:09:31;;;;;;;;;;;;;;;7.54;62.43;94440.91;4963717;28;19950;-66
2023/10/24 04:11:56;;;;;;;;;;;;;;;8.29;59.69;94445.06;4964075;28;20423;-67
2023/10/24 04:14:22;;;;;;;;;;;;;;;8.78;57.61;94450.47;4964681;28;19920;-67
2023/10/24 04:16:47;;;;;;;;;;;;;;;8.64;57.70;94446.94;4966772;28;20085;-66
2023/10/24 04:19:12;;;;;;;;;;;;;;;8.42;58.88;94460.25;4962983;28;20043;-67
2023/10/24 04:21:38;;;;;;;;;;;;;;;7.33;62.09;94465.53;4961630;28;19963;-66
2023/10/24 04:24:03;;;;;;;;;;;;;;;7.95;60.65;94469.66;4965109;28;20008;-66
2023/10/24 04:26:28;;;;;;;;;;;;;;;8.51;58.71;94466.25;4973988;28;19918;-66
2023/10/24 04:28:55;;;;;;;;;;;;;;;9.03;57.08;94458.00;4964553;28;19965;-68
2023/10/24 04:31:20;;;;;;;;;;;;;;;8.86;57.31;94444.22;4969165;28;19926;-68
2023/10/24 04:33:46;;;;;;;;;;;;;;;8.80;57.52;94443.16;4965764;28;19913;-67
2023/10/24 04:36:11;;;;;;;;;;;;;;;8.40;58.01;94440.25;4965015;28;19971;-67
2023/10/24 04:38:36;;;;;;;;;;;;;;;8.44;58.38;94441.50;4966674;28;20019;-68
2023/10/24 04:41:01;;;;;;;;;;;;;;;8.54;58.04;94438.50;4967656;28;20628;-68
2023/10/24 04:43:27;;;;;;;;;;;;;;;7.61;61.44;94448.09;4967034;28;19946;-67
2023/10/24 04:45:52;;;;;;;;;;;;;;;8.64;57.61;94441.63;4964114;28;20022;-68
2023/10/24 04:48:17;;;;;;;;;;;;;;;8.63;57.40;94436.50;4965733;28;19952;-68
2023/10/24 04:50:42;;;;;;;;;;;;;;;7.50;60.49;94439.66;4961398;28;19918;-67
2023/10/24 04:53:08;;;;;;;;;;;;;;;8.69;57.60;94422.47;4967092;28;19949;-67
2023/10/24 04:55:33;;;;;;;;;;;;;;;8.30;57.90;94428.13;4966195;28;19914;-67
2023/10/24 04:57:58;;;;;;;;;;;;;;;8.76;57.13;94428.63;4966192;28;19976;-68
2023/10/24 05:00:26;;;;;;;;;;;;;;;7.73;60.48;94430.72;4967672;28;20002;-67
2023/10/24 05:02:52;;;;;;;;;;;;;;;8.49;57.82;94435.59;4966710;28;20018;-67
2023/10/24 05:05:17;;;;;;;;;;;;;;;7.48;60.89;94452.25;4968649;28;20005;-67
2023/10/24 05:07:42;;;;;;;;;;;;;;;7.77;61.14;94429.34;4967128;28;20573;-67
2023/10/24 05:10:08;;;;;;;;;;;;;;;7.37;62.03;94440.31;4970882;28;19967;-67
2023/10/24 05:12:33;;;;;;;;;;;;;;;8.12;59.06;94433.91;4967919;28;19961;-68
2023/10/24 05:14:59;;;;;;;;;;;;;;;8.63;57.90;94437.34;4972895;28;19964;-67
2023/10/24 05:17:24;;;;;;;;;;;;;;;7.79;60.40;94427.31;4968457;28;19969;-67
2023/10/24 05:19:49;;;;;;;;;;;;;;;7.43;61.56;94428.16;4967923;28;19928;-68
2023/10/24 05:22:14;;;;;;;;;;;;;;;7.82;59.05;94410.22;4946592;28;19922;-67
2023/10/24 05:24:40;;;;;;;;;;;;;;;7.87;59.67;94415.78;4965862;28;19952;-67
2023/10/24 05:27:05;;;;;;;;;;;;;;;7.78;59.19;94415.09;4967522;28;19979;-67
2023/10/24 05:29:33;;;;;;;;;;;;;;;7.91;59.29;94408.25;4966526;28;19948;-67
2023/10/24 05:31:59;;;;;;;;;;;;;;;7.79;59.37;94403.47;4966200;28;20024;-67
2023/10/24 05:34:27;;;;;;;;;;;;;;;8.02;58.36;94398.97;4973408;28;20519;-68
2023/10/24 05:36:53;;;;;;;;;;;;;;;8.03;58.95;94396.13;4963544;28;20040;-68
2023/10/24 05:39:19;;;;;;;;;;;;;;;8.43;57.72;94394.75;4964057;28;20577;-66
2023/10/24 05:41:44;;;;;;;;;;;;;;;6.98;61.28;94397.34;4964262;28;19922;-67
2023/10/24 05:44:09;;;;;;;;;;;;;;;7.43;60.21;94396.38;4965707;28;19952;-67
2023/10/24 05:46:35;;;;;;;;;;;;;;;8.09;58.77;94383.13;4965131;28;19992;-67
2023/10/24 05:49:00;;;;;;;;;;;;;;;8.47;57.02;94380.09;4966649;28;20039;-67
2023/10/24 05:51:27;;;;;;;;;;;;;;;8.37;57.42;94374.34;4968807;28;19936;-66
2023/10/24 05:53:53;;;;;;;;;;;;;;;7.54;59.75;94377.34;4968805;28;20443;-67
2023/10/24 05:56:18;;;;;;;;;;;;;;;7.04;61.58;94379.06;4965634;28;19984;-65
2023/10/24 05:58:44;;;;;;;;;;;;;;;7.74;59.50;94378.53;4966771;28;19954;-66
2023/10/24 06:01:09;;;;;;;;;;;;;;;8.15;57.80;94374.38;4966952;28;20007;-66
2023/10/24 06:03:34;;;;;;;;;;;;;;;7.66;59.11;94375.00;4970510;28;20382;-65
2023/10/24 06:05:59;;;;;;;;;;;;;;;8.04;58.53;94381.03;4968220;28;19938;-66
2023/10/24 06:08:24;;;;;;;;;;;;;;;8.12;58.21;94390.66;4971938;28;19921;-66
2023/10/24 06:10:56;;;;;;;;;;;;;;;8.60;56.65;94395.28;4965646;28;19922;-66
2023/10/24 06:13:21;;;;;;;;;;;;;;;8.72;56.25;94402.69;4972411;28;19951;-66
2023/10/24 06:15:46;;;;;;;;;;;;;;;8.46;56.81;94406.84;4966782;28;19932;-66
2023/10/24 06:18:11;;;;;;;;;;;;;;;8.81;56.29;94393.56;4945666;28;19946;-66
2023/10/24 06:20:37;;;;;;;;;;;;;;;8.84;56.40;94389.69;4963217;28;19972;-65
2023/10/24 06:23:05;;;;;;;;;;;;;;;7.93;59.25;94390.34;4963420;28;19928;-67
2023/10/24 06:25:35;;;;;;;;;;;;;;;8.44;57.53;94396.41;4966348;28;19932;-66
2023/10/24 06:28:00;;;;;;;;;;;;;;;8.98;55.71;94390.59;4970177;28;20346;-66
2023/10/24 06:30:26;;;;;;;;;;;;;;;9.08;55.54;94391.84;4967985;28;20087;-67
2023/10/24 06:32:51;;;;;;;;;;;;;;;8.60;55.74;94405.88;4971552;28;19928;-66
2023/10/24 06:35:16;;;;;;;;;;;;;;;8.76;55.88;94393.31;4964187;28;20047;-65
2023/10/24 06:37:41;;;;;;;;;;;;;;;8.11;58.46;94411.06;4968041;28;20027;-67
2023/10/24 06:40:08;;;;;;;;;;;;;;;8.67;56.43;94406.75;4970640;28;19953;-66
2023/10/24 06:42:33;;;;;;;;;;;;;;;8.64;56.65;94399.16;4973319;28;20403;-67
2023/10/24 06:44:58;;;;;;;;;;;;;;;8.53;56.96;94400.53;4964420;28;19969;-67
2023/10/24 06:47:24;;;;;;;;;;;;;;;8.95;55.76;94405.09;4964527;28;20458;-66
2023/10/24 06:49:49;;;;;;;;;;;;;;;9.05;55.36;94402.88;4963517;28;19914;-67
2023/10/24 06:52:14;;;;;;;;;;;;;;;9.19;55.05;94397.63;4964606;28;19922;-67
2023/10/24 06:54:39;;;;;;;;;;;;;;;9.26;54.81;94393.16;4963993;28;19917;-67
2023/10/24 06:57:05;;;;;;;;;;;;;;;9.06;54.51;94388.59;4964669;28;19925;-67
2023/10/24 06:59:30;;;;;;;;;;;;;;;9.12;54.23;94383.50;4963825;28;20355;-68
2023/10/24 07:01:55;;;;;;;;;;;;;;;8.54;56.78;94385.47;4958500;28;19994;-68
2023/10/24 07:04:20;;;;;;;;;;;;;;;7.98;57.71;94393.22;4961582;28;19996;-67
2023/10/24 07:06:46;;;;;;;;;;;;;;;9.04;55.73;94381.81;4967711;28;19924;-67
2023/10/24 07:09:12;;;;;;;;;;;;;;;9.43;55.02;94387.47;4958487;28;19972;-67
2023/10/24 07:11:38;;;;;;;;;;;;;;;9.46;54.31;94387.06;4953219;28;19926;-68
2023/10/24 07:14:03;;;;;;;;;;;;;;;9.67;54.14;94385.25;4953554;28;20374;-68
2023/10/24 07:16:28;;;;;;;;;;;;;;;9.65;54.67;94395.28;4952652;28;20454;-68
2023/10/24 07:18:54;;;;;;;;;;;;;;;9.73;53.98;94392.44;4952055;28;19948;-67
2023/10/24 07:21:19;;;;;;;;;;;;;;;9.33;55.01;94396.66;4951197;28;19957;-67
2023/10/24 07:23:44;;;;;;;;;;;;;;;9.57;55.00;94399.78;4954285;28;19953;-67
2023/10/24 07:26:10;;;;;;;;;;;;;;;9.39;53.98;94397.66;4953738;28;19922;-67
2023/10/24 07:28:36;;;;;;;;;;;;;;;9.32;55.02;94408.28;4953500;28;19930;-67
2023/10/24 07:31:02;;;;;;;;;;;;;;;9.50;54.92;94412.22;4954900;28;20381;-67
2023/10/24 07:33:27;;;;;;;;;;;;;;;9.24;55.10;94410.31;4951067;28;19968;-68
2023/10/24 07:35:52;;;;;;;;;;;;;;;9.22;55.73;94401.72;4951451;28;19961;-68
2023/10/24 07:38:18;;;;;;;;;;;;;;;9.62;54.60;94401.00;4951761;28;19936;-67
2023/10/24 07:40:44;;;;;;;;;;;;;;;9.83;54.17;94408.78;4952711;28;19922;-68
2023/10/24 07:43:09;;;;;;;;;;;;;;;10.04;53.62;94408.81;4952795;28;20287;-67
2023/10/24 07:45:34;;;;;;;;;;;;;;;10.20;53.49;94412.94;4950626;28;20109;-67
2023/10/24 07:47:59;;;;;;;;;;;;;;;10.26;52.75;94416.63;4950604;28;19977;-67
2023/10/24 07:50:25;;;;;;;;;;;;;;;10.30;52.47;94423.97;4952421;28;19956;-68
2023/10/24 07:52:50;;;;;;;;;;;;;;;10.21;52.79;94427.88;4955717;28;19996;-68
2023/10/24 07:55:15;;;;;;;;;;;;;;;10.52;51.77;94436.22;4958775;28;20443;-67
2023/10/24 07:57:40;;;;;;;;;;;;;;;10.58;51.79;94436.22;4949710;28;20044;-67
2023/10/24 08:00:09;;;;;;;;;;;;;;;10.38;52.19;94435.41;4949576;28;19961;-67
2023/10/24 08:02:34;;;;;;;;;;;;;;;10.68;51.31;94442.97;4953990;28;19922;-68
2023/10/24 08:04:59;;;;;;;;;;;;;;;10.51;51.30;94446.06;4956453;28;20505;-68
2023/10/24 08:07:25;;;;;;;;;;;;;;;9.89;53.52;94455.00;4955921;28;20619;-67
2023/10/24 08:09:50;;;;;;;;;;;;;;;10.15;53.01;94439.31;4947640;28;19984;-67
2023/10/24 08:12:15;;;;;;;;;;;;;;;8.63;57.42;94444.47;4951792;28;19969;-67
2023/10/24 08:14:40;;;;;;;;;;;;;;;9.77;54.33;94441.50;4958536;28;19921;-67
2023/10/24 08:17:06;;;;;;;;;;;;;;;10.11;53.24;94446.88;4963821;28;19957;-67
2023/10/24 08:19:31;;;;;;;;;;;;;;;10.15;52.99;94444.63;4966137;28;20477;-67
2023/10/24 08:21:56;;;;;;;;;;;;;;;10.26;52.97;94438.69;4965357;28;19914;-68
2023/10/24 08:24:22;;;;;;;;;;;;;;;9.92;53.45;94440.47;4969592;28;19914;-68
2023/10/24 08:26:47;;;;;;;;;;;;;;;10.15;52.78;94441.97;4963709;28;19932;-68
2023/10/24 08:29:12;;;;;;;;;;;;;;;10.47;51.66;94436.84;4956205;28;19926;-68
2023/10/24 08:31:37;;;;;;;;;;;;;;;10.21;52.40;94433.19;4971091;28;19929;-67
2023/10/24 08:34:03;;;;;;;;;;;;;;;10.18;52.73;94450.38;4967112;28;19918;-67
2023/10/24 08:36:28;;;;;;;;;;;;;;;10.21;52.24;94457.13;4968814;28;19918;-68
2023/10/24 08:38:54;;;;;;;;;;;;;;;9.98;52.88;94463.63;4966991;28;19922;-67
2023/10/24 08:41:20;;;;;;;;;;;;;;;9.71;53.61;94466.22;4975707;28;19952;-67
2023/10/24 08:43:45;;;;;;;;;;;;;;;10.18;52.51;94463.66;4964266;28;19921;-68
2023/10/24 08:46:10;;;;;;;;;;;;;;;10.34;52.04;94462.44;4965362;28;19924;-67
2023/10/24 08:48:36;;;;;;;;;;;;;;;10.09;52.32;94473.69;4964148;28;19922;-67
2023/10/24 08:51:01;;;;;;;;;;;;;;;9.42;54.26;94470.84;4967294;28;19913;-67
2023/10/24 08:53:26;;;;;;;;;;;;;;;8.81;55.66;94470.53;4971091;28;19913;-67
2023/10/24 08:55:52;;;;;;;;;;;;;;;9.59;54.10;94471.31;4961005;28;19957;-67
2023/10/24 08:58:17;;;;;;;;;;;;;;;9.88;53.50;94465.84;4970539;28;20379;-67
2023/10/24 09:00:43;;;;;;;;;;;;;;;10.15;52.53;94461.41;4967664;28;19921;-68
2023/10/24 09:03:08;;;;;;;;;;;;;;;9.40;54.24;94454.28;4972746;28;19909;-67
2023/10/24 09:05:33;;;;;;;;;;;;;;;10.04;53.01;94454.84;4966879;28;19918;-67
2023/10/24 09:07:59;;;;;;;;;;;;;;;9.85;54.25;94454.59;4972978;28;19956;-68
2023/10/24 09:10:24;;;;;;;;;;;;;;;9.83;54.14;94445.19;4970253;28;19918;-66
2023/10/24 09:12:56;;;;;;;;;;;;;;;10.05;53.67;94437.03;4970484;28;19956;-66
2023/10/24 09:15:21;;;;;;;;;;;;;;;7.30;59.76;94444.72;4963345;28;20009;-66
2023/10/24 09:17:46;;;;;;;;;;;;;;;8.77;57.13;94443.53;4969957;28;20615;-66
2023/10/24 09:20:11;;;;;;;;;;;;;;;9.74;54.37;94441.06;4967826;28;19918;-66
2023/10/24 09:22:37;;;;;;;;;;;;;;;9.85;54.43;94440.47;4962999;28;19922;-67
2023/10/24 09:25:03;;;;;;;;;;;;;;;9.59;54.55;94434.13;4947128;28;19960;-66
2023/10/24 09:27:28;;;;;;;;;;;;;;;9.91;53.71;94437.03;4970400;28;19922;-66
2023/10/24 09:29:54;;;;;;;;;;;;;;;10.23;53.85;94428.47;4963091;28;20376;-66
2023/10/24 09:32:20;;;;;;;;;;;;;;;10.46;51.99;94424.56;4963444;28;20307;-66
2023/10/24 09:34:45;;;;;;;;;;;;;;;10.43;52.49;94430.28;4964111;28;19922;-67
2023/10/24 09:37:11;;;;;;;;;;;;;;;10.70;51.72;94432.91;4963215;28;19929;-66
2023/10/24 09:39:54;;;;;;;;;;;;;;;10.45;51.10;94429.09;4943367;28;19928;-66
2023/10/24 09:42:29;;;;;;;;;;;;;;;10.56;51.01;94429.47;4962810;28;19914;-67
2023/10/24 09:44:58;;;;;;;;;;;;;;;9.92;53.26;94436.00;4968675;28;20291;-66
2023/10/24 09:47:24;;;;;;;;;;;;;;;10.10;53.11;94424.78;4963720;28;19922;-66
2023/10/24 09:49:49;;;;;;;;;;;;;;;9.28;53.97;94432.78;4963772;28;19933;-66
2023/10/24 09:52:15;;;;;;;;;;;;;;;10.08;53.88;94436.66;4962817;28;19922;-67
2023/10/24 09:54:40;;;;;;;;;;;;;;;10.44;52.44;94435.41;4945583;28;20634;-67
2023/10/24 09:57:05;;;;;;;;;;;;;;;10.32;51.80;94421.09;4945748;28;19926;-66
2023/10/24 09:59:31;;;;;;;;;;;;;;;10.60;51.78;94425.34;4965162;28;19920;-67
2023/10/24 10:01:56;;;;;;;;;;;;;;;10.71;52.47;94427.38;4962792;28;19918;-66
2023/10/24 10:04:21;;;;;;;;;;;;;;;10.04;52.54;94414.13;4964171;28;19918;-66
2023/10/24 10:06:46;;;;;;;;;;;;;;;8.70;56.46;94410.84;4963815;28;19969;-66
2023/10/24 10:09:12;;;;;;;;;;;;;;;9.59;55.11;94408.34;4963813;28;20596;-66
2023/10/24 10:11:37;;;;;;;;;;;;;;;10.07;53.78;94403.13;4956165;28;20303;-66
2023/10/24 10:14:22;;;;;;;;;;;;;;;10.59;51.54;94405.94;4961178;28;20399;-66
2023/10/24 10:17:10;;;;;;;;;;;;;;;10.70;52.11;94415.13;4965624;28;19922;-66
2023/10/24 10:19:56;;;;;;;;;;;;;;;10.56;52.40;94413.50;4956185;28;19914;-68
2023/10/24 10:22:40;;;;;;;;;;;;;;;11.22;50.10;94408.22;4921559;28;19997;-66
2023/10/24 10:25:24;;;;;;;;;;;;;;;10.60;50.13;94404.06;4970762;28;20438;-67
2023/10/24 10:28:01;;;;;;;;;;;;;;;10.29;52.13;94405.53;4951896;28;19994;-67
2023/10/24 10:30:38;;;;;;;;;;;;;;;10.62;50.68;94386.84;4964051;28;19929;-67
2023/10/24 10:33:14;;;;;;;;;;;;;;;11.01;50.54;94388.78;4950634;28;19925;-67
2023/10/24 10:35:49;;;;;;;;;;;;;;;11.47;49.26;94381.66;4943257;28;19954;-66
2023/10/24 10:38:25;;;;;;;;;;;;;;;11.50;48.94;94369.75;4961989;28;20003;-66
2023/10/24 10:40:50;;;;;;;;;;;;;;;11.77;48.90;94369.56;4961240;28;20025;-66
2023/10/24 10:43:31;;;;;;;;;;;;;;;11.71;49.23;94354.44;4966318;28;20354;-67
2023/10/24 10:46:14;;;;;;;;;;;;;;;11.47;49.06;94357.69;4967095;28;19917;-67
2023/10/24 10:48:40;;;;;;;;;;;;;;;10.31;52.75;94352.97;4968462;28;20012;-66
2023/10/24 10:51:06;;;;;;;;;;;;;;;10.69;51.56;94346.94;4971939;28;20283;-67
2023/10/24 10:53:35;;;;;;;;;;;;;;;11.32;49.30;94338.50;4965596;28;19922;-67
2023/10/24 10:56:06;;;;;;;;;;;;;;;11.65;48.96;94326.78;4963595;28;19941;-66
2023/10/24 10:58:40;;;;;;;;;;;;;;;11.82;48.37;94324.41;4964609;28;19918;-67
2023/10/24 11:01:12;;;;;;;;;;;;;;;11.48;47.47;94324.66;4965814;28;19926;-66
2023/10/24 11:03:44;;;;;;;;;;;;;;;10.27;51.29;94325.16;4945101;28;19936;-67
2023/10/24 11:06:09;;;;;;;;;;;;;;;11.39;50.04;94323.25;4964254;28;19918;-67
2023/10/24 11:08:34;;;;;;;;;;;;;;;11.94;48.69;94308.53;4964893;28;19928;-67
2023/10/24 11:11:02;;;;;;;;;;;;;;;12.12;48.22;94314.94;4964956;28;19917;-67
2023/10/24 11:13:34;;;;;;;;;;;;;;;12.75;45.31;94315.72;4964502;28;20004;-66
2023/10/24 11:16:00;;;;;;;;;;;;;;;12.33;45.88;94308.38;4964827;28;20346;-66
2023/10/24 11:18:25;;;;;;;;;;;;;;;12.30;46.28;94308.00;4962325;28;19926;-65
2023/10/24 11:20:50;;;;;;;;;;;;;;;12.65;45.12;94294.88;4966231;28;20536;-64
2023/10/24 11:23:16;;;;;;;;;;;;;;;12.63;45.65;94288.97;4966887;28;20532;-64
2023/10/24 11:25:41;;;;;;;;;;;;;;;12.07;45.56;94294.25;4962103;28;20031;-64
2023/10/24 11:28:07;;;;;;;;;;;;;;;11.60;48.71;94302.63;4942322;28;19933;-65
2023/10/24 11:30:33;;;;;;;;;;;;;;;12.16;46.36;94286.78;4968135;28;19909;-64
2023/10/24 11:32:58;;;;;;;;;;;;;;;12.40;46.45;94287.78;4968742;28;20380;-65
2023/10/24 11:35:23;;;;;;;;;;;;;;;12.33;46.83;94294.22;4965747;28;19947;-64
2023/10/24 11:38:04;;;;;;;;;;;;;;;12.55;45.80;94286.59;4924438;28;19932;-75
2023/10/24 11:40:29;;;;;;;;;;;;;;;12.51;46.50;94285.41;4948379;28;20008;-76
2023/10/24 11:43:06;;;;;;;;;;;;;;;11.86;46.99;94282.09;4976386;28;19914;-74
2023/10/24 11:45:32;;;;;;;;;;;;;;;11.54;47.90;94288.31;4967926;28;20279;-77
2023/10/24 11:47:57;;;;;;;;;;;;;;;11.49;48.25;94288.16;4945823;28;19918;-77
2023/10/24 11:50:36;;;;;;;;;;;;;;;11.79;47.47;94290.16;4925844;28;19961;-77
2023/10/24 11:53:01;;;;;;;;;;;;;;;11.80;48.53;94280.34;4962376;28;19914;-78
2023/10/24 11:55:26;;;;;;;;;;;;;;;11.61;47.82;94293.59;4963417;28;20572;-77
2023/10/24 11:57:52;;;;;;;;;;;;;;;11.74;47.59;94290.03;4961384;28;19930;-78
2023/10/24 12:00:17;;;;;;;;;;;;;;;11.62;47.92;94288.06;4964549;28;19921;-77
2023/10/24 12:02:42;;;;;;;;;;;;;;;11.62;48.61;94293.38;4962830;28;19921;-78
2023/10/24 12:05:08;;;;;;;;;;;;;;;10.42;50.99;94293.81;4963947;28;19918;-78
2023/10/24 12:07:33;;;;;;;;;;;;;;;11.04;49.44;94303.16;4960294;28;19917;-78
2023/10/24 12:10:11;;;;;;;;;;;;;;;11.41;49.68;94288.41;4966273;28;20517;-78
2023/10/24 12:12:36;;;;;;;;;;;;;;;11.56;48.91;94288.13;4963865;28;19918;-78
2023/10/24 12:15:01;;;;;;;;;;;;;;;11.33;49.25;94287.66;4966805;28;19910;-78
2023/10/24 12:17:27;;;;;;;;;;;;;;;11.43;49.33;94289.03;4961323;28;19929;-78
2023/10/24 12:19:52;;;;;;;;;;;;;;;11.70;49.01;94291.50;4942660;28;20024;-78
2023/10/24 12:22:17;;;;;;;;;;;;;;;11.43;49.85;94291.69;4953539;28;19945;-78
2023/10/24 12:24:42;;;;;;;;;;;;;;;10.97;50.26;94300.53;4966375;28;20537;-78
2023/10/24 12:27:08;;;;;;;;;;;;;;;11.00;50.43;94297.47;4965941;28;20342;-78
2023/10/24 12:29:33;;;;;;;;;;;;;;;11.07;50.73;94296.59;4968364;28;19922;-77
2023/10/24 12:31:58;;;;;;;;;;;;;;;11.19;50.61;94297.56;4966337;28;19925;-78
2023/10/24 12:34:23;;;;;;;;;;;;;;;10.81;51.30;94299.16;4969616;28;20292;-78
2023/10/24 12:36:51;;;;;;;;;;;;;;;11.08;50.96;94287.59;4944951;28;19932;-78
2023/10/24 12:39:17;;;;;;;;;;;;;;;11.02;51.11;94291.09;4970468;28;19918;-78
2023/10/24 12:41:42;;;;;;;;;;;;;;;10.98;51.32;94282.72;4960841;28;19936;-76
2023/10/24 12:44:08;;;;;;;;;;;;;;;11.34;50.50;94283.97;4961671;28;20533;-76
2023/10/24 12:46:33;;;;;;;;;;;;;;;11.35;50.34;94279.44;4963230;28;20340;-76
2023/10/24 12:48:59;;;;;;;;;;;;;;;10.96;51.20;94288.25;4961589;28;20042;-76